Time;durP1;ratioP1;P1;durP2;ratioP2;P2;SDS_P1;SDS_P2;PMS_P1;PMS_P2;Temp;Humidity;BMP_temperature;BMP_pressure;BME280_temperature;BME280_humidity;BME280_pressure;Samples;Min_cycle;Max_cycle;Signal;HPM_P1;HPM_P2
2023/01/23 00:01:30;;;;;;;18.92;9.88;;;;;;;;;;5098756;28;20070;-87
2023/01/23 00:03:56;;;;;;;19.40;9.55;;;;;;;;;;5080399;28;20035;-86
2023/01/23 00:06:22;;;;;;;16.85;8.48;;;;;;;;;;5098416;28;20048;-85
2023/01/23 00:08:48;;;;;;;17.58;8.27;;;;;;;;;;5080637;28;20107;-87
2023/01/23 00:11:16;;;;;;;15.15;8.20;;;;;;;;;;5098378;28;20119;-86
2023/01/23 00:13:42;;;;;;;17.90;7.80;;;;;;;;;;5098845;28;20072;-85
2023/01/23 00:16:13;;;;;;;13.50;7.32;;;;;;;;;;5097706;28;20035;-85
2023/01/23 00:18:39;;;;;;;16.85;8.10;;;;;;;;;;5099343;28;20036;-85
2023/01/23 00:21:10;;;;;;;16.27;7.97;;;;;;;;;;5098059;28;20392;-84
2023/01/23 00:23:36;;;;;;;14.55;7.60;;;;;;;;;;5098441;28;20032;-84
2023/01/23 00:26:06;;;;;;;16.70;8.15;;;;;;;;;;5097800;28;20036;-85
2023/01/23 00:28:32;;;;;;;15.70;7.80;;;;;;;;;;5099724;28;20032;-86
2023/01/23 00:31:11;;;;;;;17.30;8.27;;;;;;;;;;5082295;28;20096;-84
2023/01/23 00:33:38;;;;;;;15.98;8.60;;;;;;;;;;5089807;28;20058;-86
2023/01/23 00:36:04;;;;;;;14.57;7.57;;;;;;;;;;5081220;28;20071;-84
2023/01/23 00:38:31;;;;;;;15.50;7.55;;;;;;;;;;5080862;28;20054;-87
2023/01/23 00:40:56;;;;;;;16.98;7.72;;;;;;;;;;5099039;28;20539;-84
2023/01/23 00:43:23;;;;;;;16.17;8.05;;;;;;;;;;5080119;28;20407;-83
2023/01/23 00:45:48;;;;;;;15.07;7.65;;;;;;;;;;5080338;28;20506;-86
2023/01/23 00:48:14;;;;;;;14.55;7.20;;;;;;;;;;5096968;28;20028;-86
2023/01/23 00:50:40;;;;;;;14.23;6.95;;;;;;;;;;5078115;28;20114;-82
2023/01/23 00:53:05;;;;;;;14.15;6.95;;;;;;;;;;5095590;28;20032;-86
2023/01/23 00:55:30;;;;;;;14.52;6.95;;;;;;;;;;5069733;28;20019;-84
2023/01/23 00:57:56;;;;;;;14.02;7.13;;;;;;;;;;5082508;28;20032;-85
2023/01/23 01:00:22;;;;;;;12.63;6.82;;;;;;;;;;5063948;28;20074;-87
2023/01/23 01:02:47;;;;;;;11.57;6.40;;;;;;;;;;5063280;28;20028;-85
2023/01/23 01:05:14;;;;;;;13.02;6.72;;;;;;;;;;5079613;28;20054;-86
2023/01/23 01:07:40;;;;;;;16.63;6.70;;;;;;;;;;5097550;28;20031;-87
2023/01/23 01:10:05;;;;;;;13.63;6.80;;;;;;;;;;5079235;28;20035;-83
2023/01/23 01:12:31;;;;;;;13.15;6.55;;;;;;;;;;5062500;28;20508;-86
2023/01/23 01:14:56;;;;;;;14.23;6.53;;;;;;;;;;5097143;28;20038;-85
2023/01/23 01:17:22;;;;;;;14.93;6.47;;;;;;;;;;5061908;28;20407;-86
2023/01/23 01:19:47;;;;;;;13.55;6.53;;;;;;;;;;5062171;28;20115;-85
2023/01/23 01:22:13;;;;;;;11.88;6.43;;;;;;;;;;5097530;28;20399;-86
2023/01/23 01:24:40;;;;;;;12.48;6.47;;;;;;;;;;5079005;28;20051;-85
2023/01/23 01:27:06;;;;;;;11.88;6.55;;;;;;;;;;5079271;28;20483;-86
2023/01/23 01:29:32;;;;;;;10.93;5.90;;;;;;;;;;5079066;28;20047;-86
2023/01/23 01:31:57;;;;;;;11.93;6.25;;;;;;;;;;5078492;28;20407;-86
2023/01/23 01:34:23;;;;;;;13.60;6.75;;;;;;;;;;5061757;28;20036;-83
2023/01/23 01:36:50;;;;;;;13.93;6.88;;;;;;;;;;5096699;28;20062;-82
2023/01/23 01:39:16;;;;;;;12.77;6.38;;;;;;;;;;5088180;28;20040;-84
2023/01/23 01:41:42;;;;;;;12.88;5.80;;;;;;;;;;5078779;28;20050;-85
2023/01/23 01:44:16;;;;;;;12.05;5.93;;;;;;;;;;5078358;28;20564;-85
2023/01/23 01:46:41;;;;;;;12.65;6.32;;;;;;;;;;5079353;28;20042;-86
2023/01/23 01:49:09;;;;;;;11.88;5.93;;;;;;;;;;5096891;28;20035;-87
2023/01/23 01:51:43;;;;;;;11.70;6.22;;;;;;;;;;5097799;28;20036;-87
2023/01/23 01:54:19;;;;;;;16.30;7.60;;;;;;;;;;5077969;28;20059;-84
2023/01/23 01:56:57;;;;;;;16.77;7.80;;;;;;;;;;5061453;28;20093;-85
2023/01/23 01:59:26;;;;;;;17.25;8.05;;;;;;;;;;5078296;28;20471;-84
2023/01/23 02:01:56;;;;;;;19.42;8.10;;;;;;;;;;5077637;28;20035;-83
2023/01/23 02:04:22;;;;;;;16.10;7.05;;;;;;;;;;5060594;28;20031;-84
2023/01/23 02:06:50;;;;;;;13.35;6.28;;;;;;;;;;5077401;28;20024;-85
2023/01/23 02:09:21;;;;;;;11.82;5.55;;;;;;;;;;5076547;28;20043;-85
2023/01/23 02:11:48;;;;;;;12.73;5.57;;;;;;;;;;5077044;28;20032;-83
2023/01/23 02:14:13;;;;;;;12.02;5.95;;;;;;;;;;5093681;28;20028;-85
2023/01/23 02:16:45;;;;;;;13.38;6.47;;;;;;;;;;5073419;28;20097;-85
2023/01/23 02:19:32;;;;;;;11.68;6.20;;;;;;;;;;5077819;28;20040;-83
2023/01/23 02:22:14;;;;;;;9.70;5.80;;;;;;;;;;5077982;28;20035;-85
2023/01/23 02:24:54;;;;;;;13.52;6.93;;;;;;;;;;5096530;28;20487;-85
2023/01/23 02:27:20;;;;;;;13.90;7.05;;;;;;;;;;5078590;28;20036;-85
2023/01/23 02:29:47;;;;;;;13.57;6.60;;;;;;;;;;5096804;28;20377;-85
2023/01/23 02:32:15;;;;;;;14.27;6.07;;;;;;;;;;5062136;28;20131;-83
2023/01/23 02:34:41;;;;;;;15.35;6.28;;;;;;;;;;5061452;28;20059;-85
2023/01/23 02:37:08;;;;;;;15.95;7.25;;;;;;;;;;5078127;28;20487;-83
2023/01/23 02:39:33;;;;;;;12.15;6.30;;;;;;;;;;5077962;28;20505;-81
2023/01/23 02:42:00;;;;;;;12.43;5.90;;;;;;;;;;5061964;28;20032;-84
2023/01/23 02:44:48;;;;;;;12.30;5.82;;;;;;;;;;5087590;28;20032;-86
2023/01/23 02:47:16;;;;;;;14.07;6.57;;;;;;;;;;5078351;28;20085;-84
2023/01/23 02:49:42;;;;;;;13.43;6.47;;;;;;;;;;5061130;28;20039;-84
2023/01/23 02:52:09;;;;;;;12.82;5.93;;;;;;;;;;5077817;28;20028;-85
2023/01/23 02:54:35;;;;;;;11.90;6.13;;;;;;;;;;5060243;28;20032;-85
2023/01/23 02:57:00;;;;;;;13.50;6.28;;;;;;;;;;5077884;28;20442;-85
2023/01/23 03:02:11;;;;;;;10.23;5.43;;;;;;;;;;5077426;28;20055;-85
2023/01/23 03:04:37;;;;;;;11.38;5.70;;;;;;;;;;5077737;28;20468;-85
2023/01/23 03:07:02;;;;;;;12.07;5.85;;;;;;;;;;5077291;28;20028;-85
2023/01/23 03:09:28;;;;;;;12.68;5.97;;;;;;;;;;5077607;28;20455;-86
2023/01/23 03:11:54;;;;;;;12.73;6.13;;;;;;;;;;5077002;28;20028;-84
2023/01/23 03:14:21;;;;;;;12.73;6.07;;;;;;;;;;5060178;28;20059;-85
2023/01/23 03:16:52;;;;;;;11.80;5.60;;;;;;;;;;5077375;28;20047;-84
2023/01/23 03:19:22;;;;;;;13.50;6.30;;;;;;;;;;5078103;28;20039;-83
2023/01/23 03:21:48;;;;;;;12.20;5.68;;;;;;;;;;5077878;28;20028;-84
2023/01/23 03:24:15;;;;;;;11.95;6.60;;;;;;;;;;5077675;28;20081;-84
2023/01/23 03:26:42;;;;;;;11.95;5.68;;;;;;;;;;5095521;28;20036;-84
2023/01/23 03:32:02;;;;;;;14.82;8.32;;;;;;;;;;5075085;28;20063;-84
2023/01/23 03:34:28;;;;;;;16.02;7.93;;;;;;;;;;5075169;28;20039;-83
2023/01/23 03:36:55;;;;;;;12.52;6.88;;;;;;;;;;5105806;28;20036;-85
2023/01/23 03:42:08;;;;;;;12.25;5.85;;;;;;;;;;5078262;28;20106;-82
2023/01/23 03:44:33;;;;;;;14.90;5.93;;;;;;;;;;5078223;28;20126;-83
2023/01/23 03:46:59;;;;;;;12.18;5.88;;;;;;;;;;5078424;28;20059;-87
2023/01/23 03:49:24;;;;;;;13.05;5.72;;;;;;;;;;5080674;28;20070;-82
2023/01/23 03:51:56;;;;;;;10.63;5.30;;;;;;;;;;5085620;28;20032;-84
2023/01/23 03:54:22;;;;;;;12.60;5.65;;;;;;;;;;5079002;28;20035;-83
2023/01/23 03:56:47;;;;;;;8.85;5.22;;;;;;;;;;5078331;28;20086;-85
2023/01/23 03:59:33;;;;;;;8.70;4.93;;;;;;;;;;5096231;28;20394;-84
2023/01/23 04:01:59;;;;;;;12.18;5.60;;;;;;;;;;5096527;28;20088;-84
2023/01/23 04:04:25;;;;;;;11.00;5.22;;;;;;;;;;5077711;28;20552;-84
2023/01/23 04:06:50;;;;;;;10.85;5.80;;;;;;;;;;5077722;28;20040;-84
2023/01/23 04:09:16;;;;;;;12.27;5.00;;;;;;;;;;5077594;28;20077;-83
2023/01/23 04:11:42;;;;;;;11.82;5.93;;;;;;;;;;5077794;28;20454;-84
2023/01/23 04:14:08;;;;;;;12.05;5.82;;;;;;;;;;5060396;28;20032;-85
2023/01/23 04:16:33;;;;;;;9.60;5.32;;;;;;;;;;5077626;28;20055;-86
2023/01/23 04:18:59;;;;;;;9.05;4.90;;;;;;;;;;5079932;28;20028;-84
2023/01/23 04:21:25;;;;;;;9.98;5.30;;;;;;;;;;5080866;28;20100;-86
2023/01/23 04:23:50;;;;;;;10.40;5.07;;;;;;;;;;5080327;28;20028;-82
2023/01/23 04:26:16;;;;;;;10.13;5.55;;;;;;;;;;5080395;28;20032;-84
2023/01/23 04:28:41;;;;;;;10.00;5.40;;;;;;;;;;5079838;28;20058;-84
2023/01/23 04:31:08;;;;;;;9.50;5.03;;;;;;;;;;5079652;28;20483;-82
2023/01/23 04:33:34;;;;;;;9.75;5.53;;;;;;;;;;5062928;28;20042;-84
2023/01/23 04:36:03;;;;;;;10.57;5.43;;;;;;;;;;5118086;22;20051;-81
2023/01/23 04:38:30;;;;;;;10.95;5.35;;;;;;;;;;5079188;28;20058;-81
2023/01/23 04:40:59;;;;;;;28.17;9.30;;;;;;;;;;5079008;28;20028;-81
2023/01/23 04:43:28;;;;;;;19.77;7.80;;;;;;;;;;5062845;28;20028;-81
2023/01/23 04:45:55;;;;;;;26.50;9.05;;;;;;;;;;5077598;28;20035;-81
2023/01/23 04:48:49;;;;;;;14.77;6.38;;;;;;;;;;5083210;28;20040;-81
2023/01/23 04:51:16;;;;;;;12.85;5.85;;;;;;;;;;5078428;28;20068;-81
2023/01/23 04:53:41;;;;;;;15.60;6.40;;;;;;;;;;5078778;28;20093;-82
2023/01/23 04:56:07;;;;;;;12.13;6.25;;;;;;;;;;5077526;28;20086;-81
2023/01/23 04:58:32;;;;;;;15.10;5.80;;;;;;;;;;5077856;28;20125;-81
2023/01/23 05:01:03;;;;;;;11.75;5.78;;;;;;;;;;5077502;28;20069;-81
2023/01/23 05:03:31;;;;;;;11.48;5.90;;;;;;;;;;5077081;28;20028;-81
2023/01/23 05:05:57;;;;;;;12.27;6.13;;;;;;;;;;5060931;28;20066;-81
2023/01/23 05:08:22;;;;;;;13.70;6.55;;;;;;;;;;5077409;28;20036;-81
2023/01/23 05:10:59;;;;;;;12.77;6.10;;;;;;;;;;5077463;28;20032;-81
2023/01/23 05:13:26;;;;;;;14.55;6.50;;;;;;;;;;5060768;28;20035;-82
2023/01/23 05:15:52;;;;;;;16.85;6.65;;;;;;;;;;5077166;28;20036;-81
2023/01/23 05:18:18;;;;;;;12.45;6.10;;;;;;;;;;5078272;28;20059;-81
2023/01/23 05:20:47;;;;;;;13.65;5.65;;;;;;;;;;5061789;28;20499;-81
2023/01/23 05:23:13;;;;;;;16.90;6.70;;;;;;;;;;5061286;28;20567;-81
2023/01/23 05:25:45;;;;;;;13.88;6.95;;;;;;;;;;5076821;28;20024;-82
2023/01/23 05:28:11;;;;;;;19.45;8.15;;;;;;;;;;5077187;28;20089;-81
2023/01/23 05:30:39;;;;;;;14.13;6.40;;;;;;;;;;5061059;28;20496;-81
2023/01/23 05:33:16;;;;;;;13.60;7.22;;;;;;;;;;5077589;28;20063;-81
2023/01/23 05:35:42;;;;;;;11.60;6.00;;;;;;;;;;5076427;28;20060;-81
2023/01/23 05:38:09;;;;;;;9.90;5.63;;;;;;;;;;5077019;28;20032;-81
2023/01/23 05:40:35;;;;;;;8.50;4.80;;;;;;;;;;5076640;28;20063;-81
2023/01/23 05:43:21;;;;;;;10.13;5.63;;;;;;;;;;5095796;28;20058;-81
2023/01/23 05:46:18;;;;;;;11.45;5.72;;;;;;;;;;5078536;28;20099;-81
2023/01/23 05:48:49;;;;;;;10.05;5.30;;;;;;;;;;5078715;28;20595;-81
2023/01/23 05:51:16;;;;;;;13.25;6.68;;;;;;;;;;5077284;28;20530;-81
2023/01/23 05:53:43;;;;;;;16.08;7.78;;;;;;;;;;5077635;28;20084;-81
2023/01/23 05:56:09;;;;;;;12.73;6.80;;;;;;;;;;5059956;28;20032;-81
2023/01/23 05:59:02;;;;;;;11.77;6.32;;;;;;;;;;5095259;28;20036;-82
2023/01/23 06:01:45;;;;;;;12.90;7.00;;;;;;;;;;5076498;28;20093;-81
2023/01/23 06:04:29;;;;;;;10.73;6.18;;;;;;;;;;5095036;28;20042;-81
2023/01/23 06:07:13;;;;;;;9.63;5.85;;;;;;;;;;5076986;28;20039;-81
2023/01/23 06:09:41;;;;;;;11.68;6.05;;;;;;;;;;5076736;28;20120;-81
2023/01/23 06:12:07;;;;;;;9.82;5.13;;;;;;;;;;5076883;28;20052;-83
2023/01/23 06:14:33;;;;;;;11.15;5.50;;;;;;;;;;5077218;28;20024;-82
2023/01/23 06:16:59;;;;;;;13.88;5.30;;;;;;;;;;5076742;28;20028;-82
2023/01/23 06:19:25;;;;;;;11.35;6.18;;;;;;;;;;5094637;28;20161;-82
2023/01/23 06:21:50;;;;;;;12.10;5.93;;;;;;;;;;5077020;28;20058;-81
2023/01/23 06:24:16;;;;;;;14.00;6.40;;;;;;;;;;5076202;28;20039;-81
2023/01/23 06:26:44;;;;;;;10.00;5.63;;;;;;;;;;5076496;28;20496;-81
2023/01/23 06:29:09;;;;;;;12.18;6.40;;;;;;;;;;5076513;28;20035;-81
2023/01/23 06:31:35;;;;;;;10.23;5.95;;;;;;;;;;5076891;28;20046;-81
2023/01/23 06:34:01;;;;;;;9.73;5.55;;;;;;;;;;5076700;28;20415;-82
2023/01/23 06:36:30;;;;;;;10.82;6.10;;;;;;;;;;5060071;28;20036;-81
2023/01/23 06:38:56;;;;;;;13.05;8.07;;;;;;;;;;5076153;28;20056;-81
2023/01/23 06:41:28;;;;;;;11.52;6.38;;;;;;;;;;5074967;28;20031;-81
2023/01/23 06:43:56;;;;;;;12.20;6.53;;;;;;;;;;5076604;28;20141;-81
2023/01/23 06:46:25;;;;;;;14.02;7.55;;;;;;;;;;5076209;28;20036;-81
2023/01/23 06:48:53;;;;;;;10.27;6.07;;;;;;;;;;5095126;28;20032;-81
2023/01/23 06:51:19;;;;;;;15.23;7.88;;;;;;;;;;5076550;28;20056;-81
2023/01/23 06:53:45;;;;;;;15.07;7.60;;;;;;;;;;5077798;28;20027;-81
2023/01/23 06:56:11;;;;;;;19.52;9.10;;;;;;;;;;5059210;28;20514;-82
2023/01/23 06:58:40;;;;;;;38.92;19.02;;;;;;;;;;5075745;28;20028;-82
2023/01/23 07:01:17;;;;;;;29.35;14.98;;;;;;;;;;5076250;28;20396;-81
2023/01/23 07:04:11;;;;;;;21.83;11.05;;;;;;;;;;5066755;28;20654;-82
2023/01/23 07:06:39;;;;;;;18.83;9.13;;;;;;;;;;5059668;28;20134;-82
2023/01/23 07:09:04;;;;;;;20.15;10.57;;;;;;;;;;5075891;28;20059;-81
2023/01/23 07:11:30;;;;;;;12.52;6.75;;;;;;;;;;5059680;28;20040;-82
2023/01/23 07:13:56;;;;;;;13.20;7.40;;;;;;;;;;5075990;28;20385;-81
2023/01/23 07:16:24;;;;;;;13.40;7.22;;;;;;;;;;5059747;28;20059;-81
2023/01/23 07:18:50;;;;;;;14.88;7.93;;;;;;;;;;5076525;28;20024;-81
2023/01/23 07:21:16;;;;;;;14.73;6.78;;;;;;;;;;5076140;28;20032;-81
2023/01/23 07:23:42;;;;;;;11.13;5.78;;;;;;;;;;5076199;28;20538;-81
2023/01/23 07:26:10;;;;;;;11.55;5.95;;;;;;;;;;5094056;28;20036;-79
2023/01/23 07:28:36;;;;;;;11.70;5.63;;;;;;;;;;5093214;28;20103;-80
2023/01/23 07:31:02;;;;;;;12.25;6.40;;;;;;;;;;5058491;28;20147;-80
2023/01/23 07:33:27;;;;;;;13.07;6.25;;;;;;;;;;5094045;28;20028;-80
2023/01/23 07:35:53;;;;;;;8.80;5.20;;;;;;;;;;5059168;28;20040;-80
2023/01/23 07:38:19;;;;;;;10.60;5.38;;;;;;;;;;5094228;28;20032;-81
2023/01/23 07:40:45;;;;;;;14.65;7.82;;;;;;;;;;5092897;28;20080;-81
2023/01/23 07:43:11;;;;;;;17.13;9.02;;;;;;;;;;5075138;28;20330;-81
2023/01/23 07:45:37;;;;;;;14.88;7.95;;;;;;;;;;5075524;28;20063;-81
2023/01/23 07:48:03;;;;;;;11.60;6.32;;;;;;;;;;5093970;28;20042;-83
2023/01/23 07:50:28;;;;;;;11.50;6.07;;;;;;;;;;5075613;28;20101;-80
2023/01/23 07:52:54;;;;;;;15.80;6.32;;;;;;;;;;5077397;28;20408;-82
2023/01/23 07:55:19;;;;;;;12.65;7.03;;;;;;;;;;5078931;28;20458;-81
2023/01/23 07:57:45;;;;;;;10.07;5.68;;;;;;;;;;5063338;28;20036;-82
2023/01/23 08:00:11;;;;;;;12.38;6.38;;;;;;;;;;5079279;28;20170;-81
2023/01/23 08:02:39;;;;;;;14.40;7.18;;;;;;;;;;5097959;28;20038;-79
2023/01/23 08:05:05;;;;;;;18.90;9.50;;;;;;;;;;5097703;28;20077;-83
2023/01/23 08:07:30;;;;;;;18.58;8.80;;;;;;;;;;5093631;28;20035;-82
2023/01/23 08:09:56;;;;;;;17.08;8.20;;;;;;;;;;5079742;28;20029;-83
2023/01/23 08:12:21;;;;;;;16.02;9.00;;;;;;;;;;5079058;28;20070;-80
2023/01/23 08:14:47;;;;;;;17.88;9.18;;;;;;;;;;5060617;28;20477;-81
2023/01/23 08:17:13;;;;;;;27.17;12.07;;;;;;;;;;5077493;28;20051;-81
2023/01/23 08:19:38;;;;;;;21.55;11.55;;;;;;;;;;5077017;28;20039;-81
2023/01/23 08:22:04;;;;;;;18.30;10.30;;;;;;;;;;5076828;28;20691;-81
2023/01/23 08:24:30;;;;;;;20.83;10.60;;;;;;;;;;5076516;28;20523;-81
2023/01/23 08:26:55;;;;;;;22.23;10.82;;;;;;;;;;5076821;28;20389;-81
2023/01/23 08:29:21;;;;;;;19.05;10.55;;;;;;;;;;5058538;28;20048;-80
2023/01/23 08:31:46;;;;;;;17.45;9.68;;;;;;;;;;5058649;28;20457;-80
2023/01/23 08:34:12;;;;;;;19.20;9.80;;;;;;;;;;5076270;28;20036;-81
2023/01/23 08:36:37;;;;;;;19.33;8.88;;;;;;;;;;5076001;28;20033;-80
2023/01/23 08:39:04;;;;;;;17.25;9.05;;;;;;;;;;5093172;28;20039;-83
2023/01/23 08:41:29;;;;;;;13.20;7.07;;;;;;;;;;5096436;28;20495;-81
2023/01/23 08:43:57;;;;;;;12.23;6.68;;;;;;;;;;5096468;28;20043;-81
2023/01/23 08:46:22;;;;;;;11.88;6.65;;;;;;;;;;5077008;28;20112;-81
2023/01/23 08:48:48;;;;;;;10.85;6.28;;;;;;;;;;5076042;28;20056;-81
2023/01/23 08:51:13;;;;;;;11.32;6.78;;;;;;;;;;5063436;28;20488;-81
2023/01/23 08:53:40;;;;;;;16.23;8.70;;;;;;;;;;5086432;28;20059;-81
2023/01/23 08:56:13;;;;;;;14.77;8.00;;;;;;;;;;5083501;28;20036;-80
2023/01/23 08:58:38;;;;;;;;;;;;;;;;;;5085127;28;20043;-76
2023/01/23 09:01:04;;;;;;;13.63;7.05;;;;;;;;;;5065878;28;19912;-81
2023/01/23 09:03:29;;;;;;;19.00;9.38;;;;;;;;;;5092859;28;20040;-81
2023/01/23 09:05:59;;;;;;;14.38;8.02;;;;;;;;;;5095414;28;20115;-80
2023/01/23 09:08:25;;;;;;;31.45;13.50;;;;;;;;;;5096551;28;20092;-80
2023/01/23 09:10:50;;;;;;;24.95;11.57;;;;;;;;;;5096692;28;20127;-82
2023/01/23 09:13:16;;;;;;;38.60;14.55;;;;;;;;;;5095978;28;20032;-81
2023/01/23 09:15:41;;;;;;;31.38;14.60;;;;;;;;;;5095111;28;20098;-81
2023/01/23 09:18:07;;;;;;;20.98;9.55;;;;;;;;;;5096350;28;20028;-81
2023/01/23 09:20:32;;;;;;;17.33;8.77;;;;;;;;;;5096449;28;20464;-82
2023/01/23 09:22:58;;;;;;;14.25;8.05;;;;;;;;;;5096052;28;20028;-83
2023/01/23 09:25:23;;;;;;;17.60;9.15;;;;;;;;;;5095674;28;20496;-81
2023/01/23 09:27:48;;;;;;;19.55;9.80;;;;;;;;;;5077926;28;20381;-82
2023/01/23 09:30:14;;;;;;;18.33;9.45;;;;;;;;;;5095540;28;20032;-82
2023/01/23 09:32:40;;;;;;;18.73;9.02;;;;;;;;;;5095330;28;20031;-81
2023/01/23 09:35:05;;;;;;;16.75;8.75;;;;;;;;;;5095394;28;20043;-81
2023/01/23 09:37:58;;;;;;;22.67;9.63;;;;;;;;;;5095662;28;20384;-81
2023/01/23 09:40:21;;;;;;;27.02;11.60;;;;;;;;;;5095694;28;20040;-81
2023/01/23 09:42:46;;;;;;;30.15;13.02;;;;;;;;;;5095845;28;20406;-81
2023/01/23 09:45:18;;;;;;;33.35;13.30;;;;;;;;;;5095380;28;20504;-82
2023/01/23 09:47:52;;;;;;;32.28;12.93;;;;;;;;;;5095224;28;20032;-82
2023/01/23 09:50:32;;;;;;;35.50;13.10;;;;;;;;;;5077509;28;20036;-81
2023/01/23 09:53:26;;;;;;;48.70;16.20;;;;;;;;;;5077294;28;20071;-81
2023/01/23 09:56:11;;;;;;;;;;;;;;;;;;5089937;28;20048;-78
2023/01/23 09:58:45;;;;;;;46.50;16.98;;;;;;;;;;5095159;28;20023;-81
2023/01/23 10:01:12;;;;;;;;;;;;;;;;;;5095774;28;20047;-78
2023/01/23 10:03:38;;;;;;;41.20;14.35;;;;;;;;;;5095071;28;20431;-83
2023/01/23 10:06:29;;;;;;;41.05;16.23;;;;;;;;;;5076961;28;20075;-83
2023/01/23 10:09:19;;;;;;;40.83;16.33;;;;;;;;;;5096483;28;20392;-81
2023/01/23 10:12:18;;;;;;;47.03;16.20;;;;;;;;;;5095383;28;20044;-80
2023/01/23 10:14:54;;;;;;;50.78;18.10;;;;;;;;;;5094778;28;20028;-84
2023/01/23 10:17:31;;;;;;;44.35;17.80;;;;;;;;;;5077553;28;20067;-81
2023/01/23 10:19:59;;;;;;;33.33;13.32;;;;;;;;;;5096350;28;20024;-81
2023/01/23 10:22:33;;;;;;;46.53;17.58;;;;;;;;;;5075474;28;20377;-80
2023/01/23 10:25:07;;;;;;;37.90;16.55;;;;;;;;;;5041142;28;20036;-82
2023/01/23 10:27:37;;;;;;;40.28;16.55;;;;;;;;;;5081483;28;20075;-81
2023/01/23 10:30:32;;;;;;;39.90;16.88;;;;;;;;;;5085051;28;20036;-81
2023/01/23 10:32:59;;;;;;;40.80;16.80;;;;;;;;;;5059445;28;20048;-81
2023/01/23 10:35:43;;;;;;;38.88;16.77;;;;;;;;;;5103544;23;20832;-83
2023/01/23 10:38:11;;;;;;;;;;;;;;;;;;5097488;28;20480;-85
2023/01/23 10:43:21;;;;;;;40.58;18.20;;;;;;;;;;5097037;28;20085;-84
2023/01/23 10:45:48;;;;;;;41.40;17.45;;;;;;;;;;5096232;28;20032;-84
2023/01/23 10:48:27;;;;;;;42.35;16.90;;;;;;;;;;5096452;28;20181;-84
2023/01/23 10:50:54;;;;;;;41.28;17.35;;;;;;;;;;5060369;28;20035;-84
2023/01/23 10:53:20;;;;;;;42.20;18.45;;;;;;;;;;5095057;28;20040;-85
2023/01/23 10:55:46;;;;;;;48.92;20.05;;;;;;;;;;5076478;28;20023;-84
2023/01/23 10:58:38;;;;;;;41.42;18.38;;;;;;;;;;5076017;28;20040;-85
2023/01/23 11:01:05;;;;;;;42.95;16.95;;;;;;;;;;5094369;28;20050;-84
2023/01/23 11:03:33;;;;;;;42.80;17.10;;;;;;;;;;5104172;28;20036;-85
2023/01/23 11:06:07;;;;;;;45.67;18.38;;;;;;;;;;5077894;28;20044;-86
2023/01/23 11:08:39;;;;;;;46.80;19.98;;;;;;;;;;5078329;28;20051;-84
2023/01/23 11:11:14;;;;;;;49.80;20.77;;;;;;;;;;5078140;28;20028;-85
2023/01/23 11:13:41;;;;;;;45.70;18.60;;;;;;;;;;5095566;28;20036;-86
2023/01/23 11:16:12;;;;;;;50.10;20.60;;;;;;;;;;5095602;28;20111;-85
2023/01/23 11:18:42;;;;;;;53.28;22.23;;;;;;;;;;5077711;28;20138;-85
2023/01/23 11:21:28;;;;;;;53.58;20.77;;;;;;;;;;5095525;28;20373;-84
2023/01/23 11:24:26;;;;;;;45.75;19.42;;;;;;;;;;5095766;28;20652;-85
2023/01/23 11:27:04;;;;;;;49.88;19.33;;;;;;;;;;5095144;28;20092;-85
2023/01/23 11:29:51;;;;;;;47.75;19.60;;;;;;;;;;5099082;28;20074;-84
2023/01/23 11:32:17;;;;;;;45.08;20.33;;;;;;;;;;5108624;28;20115;-83
2023/01/23 11:34:49;;;;;;;45.45;20.00;;;;;;;;;;5081461;28;20028;-84
2023/01/23 11:37:33;;;;;;;44.45;18.77;;;;;;;;;;5081421;28;20027;-85
2023/01/23 11:40:06;;;;;;;41.15;18.23;;;;;;;;;;5065052;28;20028;-84
2023/01/23 11:42:33;;;;;;;40.42;18.52;;;;;;;;;;5099726;28;20071;-84
2023/01/23 11:44:58;;;;;;;47.72;19.42;;;;;;;;;;5099770;28;20042;-85
2023/01/23 11:47:44;;;;;;;55.05;23.00;;;;;;;;;;5081768;28;20122;-85
2023/01/23 11:50:36;;;;;;;42.40;19.60;;;;;;;;;;5099010;28;20046;-84
2023/01/23 11:53:20;;;;;;;41.42;17.45;;;;;;;;;;5098932;28;20036;-84
2023/01/23 11:55:51;;;;;;;41.28;18.70;;;;;;;;;;5098643;28;20039;-85
2023/01/23 11:58:55;;;;;;;39.00;17.42;;;;;;;;;;5081082;28;20036;-87
2023/01/23 12:01:43;;;;;;;39.47;16.88;;;;;;;;;;5095321;28;20048;-85
2023/01/23 12:04:56;;;;;;;40.00;18.00;;;;;;;;;;5097778;28;20388;-86
2023/01/23 12:07:25;;;;;;;40.58;17.10;;;;;;;;;;5079544;28;20036;-85
2023/01/23 12:09:51;;;;;;;38.78;17.33;;;;;;;;;;5098467;28;20044;-85
2023/01/23 12:12:22;;;;;;;36.45;16.92;;;;;;;;;;5095917;28;20127;-85
2023/01/23 12:15:19;;;;;;;38.75;17.90;;;;;;;;;;5077461;28;20036;-84
2023/01/23 12:17:56;;;;;;;39.17;17.50;;;;;;;;;;5103920;28;20036;-87
2023/01/23 12:20:37;;;;;;;43.05;18.23;;;;;;;;;;5079559;28;20039;-87
2023/01/23 12:23:18;;;;;;;39.08;17.77;;;;;;;;;;5098590;28;20381;-86
2023/01/23 12:26:06;;;;;;;37.92;17.42;;;;;;;;;;5079737;28;20036;-84
2023/01/23 12:29:08;;;;;;;38.47;16.52;;;;;;;;;;5096866;28;20055;-85
2023/01/23 12:31:52;;;;;;;35.80;17.05;;;;;;;;;;5098141;28;20039;-84
2023/01/23 12:34:35;;;;;;;37.10;16.33;;;;;;;;;;5097666;28;20032;-84
2023/01/23 12:37:32;;;;;;;37.00;15.90;;;;;;;;;;5066038;28;20032;-85
2023/01/23 12:40:21;;;;;;;39.22;17.05;;;;;;;;;;5079347;28;20047;-87
2023/01/23 12:43:04;;;;;;;48.30;19.73;;;;;;;;;;5097111;28;20044;-87
2023/01/23 12:45:31;;;;;;;37.08;16.23;;;;;;;;;;5078236;28;20392;-87
2023/01/23 12:48:18;;;;;;;47.03;18.95;;;;;;;;;;5097637;28;20054;-88
2023/01/23 12:50:56;;;;;;;41.33;18.55;;;;;;;;;;5079621;28;20028;-87
2023/01/23 12:53:22;;;;;;;47.95;19.70;;;;;;;;;;5097839;28;20039;-86
2023/01/23 12:56:06;;;;;;;45.97;19.65;;;;;;;;;;5096513;28;20040;-86
2023/01/23 12:58:35;;;;;;;53.35;21.30;;;;;;;;;;5097228;28;20039;-86
2023/01/23 13:01:24;;;;;;;45.08;19.75;;;;;;;;;;5078890;28;20043;-86
2023/01/23 13:03:55;;;;;;;42.67;19.20;;;;;;;;;;5093870;28;20032;-87
2023/01/23 13:06:23;;;;;;;44.50;19.15;;;;;;;;;;5097590;28;20126;-87
2023/01/23 13:09:06;;;;;;;39.47;17.23;;;;;;;;;;5098300;28;20047;-88
2023/01/23 13:11:43;;;;;;;43.15;18.63;;;;;;;;;;5097534;28;20065;-88
2023/01/23 13:14:23;;;;;;;50.33;19.65;;;;;;;;;;5096960;28;20436;-87
2023/01/23 13:16:51;;;;;;;46.20;18.23;;;;;;;;;;5079224;28;20051;-85
2023/01/23 13:22:15;;;;;;;42.80;18.48;;;;;;;;;;5096875;28;20525;-87
2023/01/23 13:25:12;;;;;;;43.03;19.10;;;;;;;;;;5096009;28;20024;-86
2023/01/23 13:27:38;;;;;;;40.90;17.83;;;;;;;;;;5100936;28;20054;-86
2023/01/23 13:30:25;;;;;;;40.58;17.13;;;;;;;;;;5090761;28;20036;-86
2023/01/23 13:33:37;;;;;;;45.28;19.02;;;;;;;;;;5064445;28;20150;-86
2023/01/23 13:36:20;;;;;;;44.50;18.92;;;;;;;;;;5098767;28;20529;-84
2023/01/23 13:39:17;;;;;;;42.33;18.40;;;;;;;;;;5098107;28;20126;-85
2023/01/23 13:41:43;;;;;;;47.50;18.52;;;;;;;;;;5061588;28;20028;-85
2023/01/23 13:44:17;;;;;;;45.80;18.75;;;;;;;;;;5105435;28;20032;-86
2023/01/23 13:46:52;;;;;;;45.88;20.40;;;;;;;;;;5063918;28;20035;-86
2023/01/23 13:57:47;;;;;;;56.22;24.33;;;;;;;;;;5079199;28;20036;-85
2023/01/23 14:00:23;;;;;;;49.90;19.88;;;;;;;;;;5097623;28;20084;-85
2023/01/23 14:05:42;;;;;;;44.03;19.20;;;;;;;;;;5097357;28;20085;-85
2023/01/23 14:08:19;;;;;;;44.33;19.90;;;;;;;;;;5097208;28;20036;-87
2023/01/23 14:10:47;;;;;;;51.53;20.15;;;;;;;;;;5084638;28;20146;-85
2023/01/23 14:13:20;;;;;;;44.45;19.05;;;;;;;;;;5093499;28;20054;-85
2023/01/23 14:18:37;;;;;;;55.67;22.45;;;;;;;;;;5097057;28;20396;-86
2023/01/23 14:21:14;;;;;;;44.78;18.77;;;;;;;;;;5078326;28;20028;-86
2023/01/23 14:23:40;;;;;;;47.03;20.58;;;;;;;;;;5098582;28;20086;-87
2023/01/23 14:26:13;;;;;;;44.22;19.55;;;;;;;;;;5097314;28;20046;-88
2023/01/23 14:28:38;;;;;;;49.63;22.07;;;;;;;;;;5095743;28;20103;-87
2023/01/23 14:31:06;;;;;;;64.22;30.42;;;;;;;;;;5093658;28;20373;-85
2023/01/23 14:33:41;;;;;;;57.00;29.55;;;;;;;;;;5076006;28;20369;-86
2023/01/23 14:36:13;;;;;;;45.55;21.58;;;;;;;;;;5092936;28;20484;-86
2023/01/23 14:38:39;;;;;;;52.65;20.60;;;;;;;;;;5092599;28;20032;-84
2023/01/23 14:41:06;;;;;;;52.90;20.88;;;;;;;;;;5093124;28;20438;-83
2023/01/23 14:43:33;;;;;;;50.75;22.00;;;;;;;;;;5093576;28;20063;-84
2023/01/23 14:46:03;;;;;;;46.25;20.52;;;;;;;;;;5074407;28;20075;-85
2023/01/23 14:48:34;;;;;;;48.58;20.63;;;;;;;;;;5082807;28;20028;-85
2023/01/23 14:51:13;;;;;;;45.58;19.67;;;;;;;;;;5095867;28;20078;-86
2023/01/23 14:53:40;;;;;;;48.90;20.63;;;;;;;;;;5095106;28;20032;-86
2023/01/23 14:56:08;;;;;;;48.75;21.00;;;;;;;;;;5094008;28;20032;-85
2023/01/23 14:58:35;;;;;;;52.38;21.13;;;;;;;;;;5076319;28;20040;-85
2023/01/23 15:01:01;;;;;;;54.58;21.98;;;;;;;;;;5075925;28;20028;-88
2023/01/23 15:03:40;;;;;;;46.47;20.08;;;;;;;;;;5093579;28;20036;-87
2023/01/23 15:06:13;;;;;;;55.90;21.45;;;;;;;;;;5094484;28;20047;-87
2023/01/23 15:08:40;;;;;;;51.85;23.20;;;;;;;;;;5094653;28;20040;-86
2023/01/23 15:11:10;;;;;;;53.75;21.38;;;;;;;;;;5075913;28;20036;-87
2023/01/23 15:13:42;;;;;;;56.83;22.58;;;;;;;;;;5093570;28;20571;-86
2023/01/23 15:16:21;;;;;;;50.60;21.63;;;;;;;;;;5094901;28;20522;-86